createdAt,value
2023-08-02T00:00:54.795Z,26.40
2023-08-02T00:01:58.163Z,26.39
2023-08-02T00:03:02.419Z,26.34
2023-08-02T00:04:11.385Z,26.29
2023-08-02T00:05:16.068Z,26.10
2023-08-02T00:06:18.617Z,26.10
2023-08-02T00:07:22.262Z,26.17
2023-08-02T00:08:25.684Z,26.21
2023-08-02T00:09:29.281Z,26.18
2023-08-02T00:10:31.958Z,26.03
2023-08-02T00:11:37.641Z,26.04
2023-08-02T00:12:40.396Z,26.04
2023-08-02T00:13:43.974Z,25.91
2023-08-02T00:14:46.554Z,25.82
2023-08-02T00:15:50.191Z,25.77
2023-08-02T00:16:52.740Z,25.87
2023-08-02T00:17:56.373Z,26.03
2023-08-02T00:18:59.232Z,26.15
2023-08-02T00:20:03.040Z,26.20
2023-08-02T00:21:05.529Z,26.25
2023-08-02T00:22:09.202Z,26.25
2023-08-02T00:23:11.988Z,26.19
2023-08-02T00:24:16.355Z,26.12
2023-08-02T00:25:19.719Z,26.14
2023-08-02T00:26:25.196Z,26.19
2023-08-02T00:27:30.486Z,26.19
2023-08-02T00:28:35.701Z,26.15
2023-08-02T00:29:40.150Z,26.24
2023-08-02T00:30:50.251Z,26.29
2023-08-02T00:31:54.256Z,26.22
2023-08-02T00:33:01.746Z,26.08
2023-08-02T00:34:05.071Z,26.05
2023-08-02T00:35:09.699Z,25.98
2023-08-02T00:36:12.670Z,25.95
2023-08-02T00:37:16.245Z,26.08
2023-08-02T00:38:18.893Z,26.16
2023-08-02T00:39:22.646Z,26.14
2023-08-02T00:40:26.492Z,26.11
2023-08-02T00:41:30.374Z,26.08
2023-08-02T00:42:34.490Z,25.93
2023-08-02T00:43:42.163Z,25.85
2023-08-02T00:44:44.639Z,25.80
2023-08-02T00:45:48.756Z,25.78
2023-08-02T00:46:51.767Z,25.64
2023-08-02T00:47:55.407Z,25.66
2023-08-02T00:48:57.900Z,25.71
2023-08-02T00:50:01.824Z,25.70
2023-08-02T00:51:05.211Z,25.73
2023-08-02T00:52:10.145Z,25.69
2023-08-02T00:53:12.773Z,25.76
2023-08-02T00:54:16.574Z,25.79
2023-08-02T00:55:22.450Z,25.87
2023-08-02T00:56:29.202Z,25.88
2023-08-02T00:57:37.987Z,25.83
2023-08-02T00:58:41.921Z,25.84
2023-08-02T00:59:45.869Z,25.84
2023-08-02T01:00:51.753Z,25.82
2023-08-02T01:01:54.759Z,25.70
2023-08-02T01:02:59.838Z,25.76
2023-08-02T01:04:02.773Z,25.92
2023-08-02T01:05:07.019Z,25.89
2023-08-02T01:06:16.490Z,25.93
2023-08-02T01:07:26.730Z,25.90
2023-08-02T01:08:33.627Z,25.69
2023-08-02T01:09:43.428Z,25.78
2023-08-02T01:10:51.594Z,25.75
2023-08-02T01:12:01.202Z,25.82
2023-08-02T01:13:06.375Z,25.77
2023-08-02T01:14:11.981Z,25.87
2023-08-02T01:15:16.364Z,25.86
2023-08-02T01:16:22.016Z,25.86
2023-08-02T01:17:28.417Z,25.91
2023-08-02T01:18:32.940Z,25.91
2023-08-02T01:19:35.426Z,25.90
2023-08-02T01:20:40.445Z,25.92
2023-08-02T01:21:43.395Z,26.01
2023-08-02T01:22:47.032Z,26.01
2023-08-02T01:23:49.730Z,25.99
2023-08-02T01:24:53.291Z,26.05
2023-08-02T01:25:59.869Z,26.08
2023-08-02T01:27:09.942Z,26.04
2023-08-02T01:28:18.445Z,26.08
2023-08-02T01:29:25.215Z,26.11
2023-08-02T01:30:35.033Z,26.09
2023-08-02T01:31:41.317Z,26.15
2023-08-02T01:32:44.613Z,26.10
2023-08-02T01:33:52.629Z,26.09
2023-08-02T01:34:57.004Z,26.13
2023-08-02T01:36:02.867Z,26.17
2023-08-02T01:37:06.154Z,26.00
2023-08-02T01:38:10.400Z,26.03
2023-08-02T01:39:13.339Z,25.91
2023-08-02T01:40:17.634Z,25.75
2023-08-02T01:41:20.761Z,25.67
2023-08-02T01:42:24.440Z,25.68
2023-08-02T01:43:27.210Z,25.74
2023-08-02T01:44:30.644Z,25.82
2023-08-02T01:45:33.212Z,25.87
2023-08-02T01:46:36.775Z,25.96
2023-08-02T01:47:39.960Z,25.98
2023-08-02T01:48:43.840Z,25.86
2023-08-02T01:49:46.671Z,25.71
2023-08-02T01:50:50.082Z,25.77
2023-08-02T01:51:54.290Z,25.84
2023-08-02T01:52:58.047Z,25.92
2023-08-02T01:54:01.665Z,25.77
2023-08-02T01:55:06.009Z,25.73
2023-08-02T01:56:08.507Z,25.65
2023-08-02T01:57:11.130Z,25.62
2023-08-02T01:58:15.005Z,25.58
2023-08-02T01:59:17.679Z,25.52
2023-08-02T02:00:21.632Z,25.48
2023-08-02T02:01:24.789Z,25.46
2023-08-02T02:02:28.940Z,25.40
2023-08-02T02:03:31.882Z,25.37
2023-08-02T02:04:35.789Z,25.55
2023-08-02T02:05:38.481Z,25.65
2023-08-02T02:06:42.739Z,25.67
2023-08-02T02:07:47.234Z,25.67
2023-08-02T02:08:50.385Z,25.76
2023-08-02T02:09:53.895Z,25.74
2023-08-02T02:10:56.661Z,25.70
2023-08-02T02:12:00.025Z,25.61
2023-08-02T02:13:02.881Z,25.45
2023-08-02T02:14:06.698Z,25.46
2023-08-02T02:15:10.864Z,25.43
2023-08-02T02:16:14.580Z,25.43
2023-08-02T02:17:17.305Z,25.52
2023-08-02T02:18:21.004Z,25.56
2023-08-02T02:19:23.486Z,25.51
2023-08-02T02:20:26.963Z,25.43
2023-08-02T02:21:29.544Z,25.51
2023-08-02T02:22:33.070Z,25.55
2023-08-02T02:23:37.811Z,25.49
2023-08-02T02:24:42.034Z,25.47
2023-08-02T02:25:44.441Z,25.52
2023-08-02T02:26:48.398Z,25.57
2023-08-02T02:27:51.291Z,25.61
2023-08-02T02:28:55.765Z,25.61
2023-08-02T02:29:58.560Z,25.65
2023-08-02T02:31:02.471Z,25.70
2023-08-02T02:32:05.852Z,25.71
2023-08-02T02:33:09.579Z,25.74
2023-08-02T02:34:12.226Z,25.73
2023-08-02T02:35:16.303Z,25.70
2023-08-02T02:36:18.857Z,25.67
2023-08-02T02:37:22.410Z,25.73
2023-08-02T02:38:25.040Z,25.82
2023-08-02T02:39:30.658Z,25.85
2023-08-02T02:40:33.816Z,25.85
2023-08-02T02:41:39.444Z,25.73
2023-08-02T02:42:42.377Z,25.73
2023-08-02T02:43:46.323Z,25.60
2023-08-02T02:44:49.667Z,25.57
2023-08-02T02:45:55.187Z,25.39
2023-08-02T02:46:59.621Z,25.41
2023-08-02T02:48:03.616Z,25.37
2023-08-02T02:49:06.336Z,25.39
2023-08-02T02:50:10.698Z,25.25
2023-08-02T02:51:13.718Z,25.33
2023-08-02T02:52:17.536Z,25.35
2023-08-02T02:53:22.071Z,25.39
2023-08-02T02:54:25.692Z,25.36
2023-08-02T02:55:30.285Z,25.35
2023-08-02T02:56:34.050Z,25.29
2023-08-02T02:57:36.650Z,25.32
2023-08-02T02:58:40.528Z,25.35
2023-08-02T02:59:43.251Z,25.36
2023-08-02T03:00:46.885Z,25.35
2023-08-02T03:01:49.474Z,25.41
2023-08-02T03:02:53.574Z,25.37
2023-08-02T03:03:56.962Z,25.48
2023-08-02T03:05:00.556Z,25.51
2023-08-02T03:06:03.343Z,25.48
2023-08-02T03:07:07.738Z,25.42
2023-08-02T03:08:10.386Z,25.43
2023-08-02T03:09:14.313Z,25.44
2023-08-02T03:10:16.986Z,25.42
2023-08-02T03:11:22.125Z,25.31
2023-08-02T03:12:24.821Z,25.26
2023-08-02T03:13:28.526Z,25.32
2023-08-02T03:14:31.105Z,25.21
2023-08-02T03:15:34.632Z,25.26
2023-08-02T03:16:37.732Z,25.13
2023-08-02T03:17:41.386Z,25.12
2023-08-02T03:18:44.089Z,25.08
2023-08-02T03:19:48.253Z,25.09
2023-08-02T03:20:51.002Z,25.05
2023-08-02T03:21:54.750Z,25.06
2023-08-02T03:22:57.645Z,25.05
2023-08-02T03:24:01.890Z,24.97
2023-08-02T03:25:05.099Z,24.98
2023-08-02T03:26:08.557Z,24.92
2023-08-02T03:27:13.921Z,24.94
2023-08-02T03:28:17.808Z,25.00
2023-08-02T03:29:20.694Z,24.95
2023-08-02T03:30:24.387Z,24.98
2023-08-02T03:31:26.931Z,25.01
2023-08-02T03:32:32.146Z,24.97
2023-08-02T03:33:34.835Z,24.90
2023-08-02T03:34:38.915Z,24.92
2023-08-02T03:35:42.233Z,24.92
2023-08-02T03:36:45.920Z,24.88
2023-08-02T03:37:48.923Z,24.92
2023-08-02T03:38:52.650Z,24.91
2023-08-02T03:39:55.671Z,25.03
2023-08-02T03:40:59.449Z,25.14
2023-08-02T03:42:02.021Z,25.19
2023-08-02T03:43:06.991Z,25.06
2023-08-02T03:44:09.432Z,24.95
2023-08-02T03:45:13.220Z,24.97
2023-08-02T03:46:15.814Z,25.04
2023-08-02T03:47:20.168Z,24.95
2023-08-02T03:48:22.562Z,24.93
2023-08-02T03:49:26.456Z,24.92
2023-08-02T03:50:29.230Z,24.90
2023-08-02T03:51:32.889Z,24.82
2023-08-02T03:52:35.479Z,24.80
2023-08-02T03:53:39.258Z,24.78
2023-08-02T03:54:42.370Z,24.80
2023-08-02T03:55:46.017Z,24.83
2023-08-02T03:56:48.636Z,24.89
2023-08-02T03:57:52.199Z,24.97
2023-08-02T03:58:56.189Z,25.01
2023-08-02T03:59:59.780Z,25.05
2023-08-02T04:01:02.310Z,25.02
2023-08-02T04:02:06.265Z,24.95
2023-08-02T04:03:09.265Z,24.87
2023-08-02T04:04:13.569Z,24.87
2023-08-02T04:05:16.942Z,24.93
2023-08-02T04:06:20.583Z,24.91
2023-08-02T04:07:23.639Z,24.92
2023-08-02T04:08:27.301Z,24.90
2023-08-02T04:09:29.834Z,24.98
2023-08-02T04:10:38.144Z,25.10
2023-08-02T04:11:40.638Z,25.21
2023-08-02T04:12:44.605Z,25.30
2023-08-02T04:13:47.698Z,25.33
2023-08-02T04:14:52.674Z,25.43
2023-08-02T04:15:55.170Z,25.41
2023-08-02T04:16:58.791Z,25.38
2023-08-02T04:18:01.791Z,25.42
2023-08-02T04:19:05.579Z,25.43
2023-08-02T04:20:09.570Z,25.47
2023-08-02T04:21:19.920Z,25.47
2023-08-02T04:22:22.895Z,25.31
2023-08-02T04:23:26.651Z,25.34
2023-08-02T04:24:29.366Z,25.13
2023-08-02T04:25:33.087Z,25.01
2023-08-02T04:26:35.767Z,24.86
2023-08-02T04:27:39.582Z,24.65
2023-08-02T04:28:42.153Z,24.67
2023-08-02T04:29:45.678Z,24.68
2023-08-02T04:30:52.992Z,24.60
2023-08-02T04:31:56.547Z,24.66
2023-08-02T04:32:59.399Z,24.75
2023-08-02T04:34:02.803Z,24.72
2023-08-02T04:35:06.209Z,24.60
2023-08-02T04:36:09.752Z,24.50
2023-08-02T04:37:12.179Z,24.48
2023-08-02T04:38:15.840Z,24.37
2023-08-02T04:39:18.263Z,24.43
2023-08-02T04:40:22.029Z,24.39
2023-08-02T04:41:25.264Z,24.47
2023-08-02T04:42:28.794Z,24.39
2023-08-02T04:43:31.450Z,24.40
2023-08-02T04:44:35.478Z,24.39
2023-08-02T04:45:37.974Z,24.34
2023-08-02T04:46:43.269Z,24.39
2023-08-02T04:47:46.469Z,24.30
2023-08-02T04:48:50.033Z,24.25
2023-08-02T04:49:52.627Z,24.27
2023-08-02T04:50:56.242Z,24.30
2023-08-02T04:51:58.790Z,24.26
2023-08-02T04:53:02.694Z,24.26
2023-08-02T04:54:05.614Z,24.27
2023-08-02T04:55:10.511Z,24.35
2023-08-02T04:56:13.662Z,24.38
2023-08-02T04:57:17.794Z,24.37
2023-08-02T04:58:20.408Z,24.37
2023-08-02T04:59:25.982Z,24.46
2023-08-02T05:00:29.696Z,24.58
2023-08-02T05:01:33.824Z,24.48
2023-08-02T05:02:38.011Z,24.50
2023-08-02T05:03:42.115Z,24.58
2023-08-02T05:04:44.806Z,24.62
2023-08-02T05:05:48.484Z,24.63
2023-08-02T05:06:51.092Z,24.62
2023-08-02T05:07:54.640Z,24.59
2023-08-02T05:08:57.277Z,24.69
2023-08-02T05:10:05.683Z,24.77
2023-08-02T05:11:09.582Z,24.74
2023-08-02T05:12:13.680Z,24.80
2023-08-02T05:13:16.564Z,24.75
2023-08-02T05:14:22.011Z,24.72
2023-08-02T05:15:26.429Z,24.59
2023-08-02T05:16:30.077Z,24.54
2023-08-02T05:17:33.565Z,24.62
2023-08-02T05:18:38.910Z,24.65
2023-08-02T05:19:41.804Z,24.62
2023-08-02T05:20:45.451Z,24.69
2023-08-02T05:21:48.058Z,24.70
2023-08-02T05:22:52.173Z,24.76
2023-08-02T05:23:54.934Z,24.90
2023-08-02T05:25:00.198Z,24.82
2023-08-02T05:26:06.294Z,24.82
2023-08-02T05:27:11.369Z,24.81
2023-08-02T05:28:15.700Z,24.82
2023-08-02T05:29:21.307Z,24.75
2023-08-02T05:30:24.224Z,24.80
2023-08-02T05:31:28.928Z,24.76
2023-08-02T05:32:31.696Z,24.75
2023-08-02T05:33:36.048Z,24.82
2023-08-02T05:34:40.429Z,24.76
2023-08-02T05:35:44.167Z,24.74
2023-08-02T05:36:46.909Z,24.81
2023-08-02T05:37:50.455Z,24.86
2023-08-02T05:38:53.425Z,24.86
2023-08-02T05:39:57.184Z,24.89
2023-08-02T05:41:01.680Z,24.88
2023-08-02T05:42:06.316Z,24.99
2023-08-02T05:43:09.156Z,25.07
2023-08-02T05:44:12.847Z,25.18
2023-08-02T05:45:15.828Z,25.26
2023-08-02T05:46:19.753Z,25.27
2023-08-02T05:47:23.479Z,25.32
2023-08-02T05:48:27.590Z,25.28
2023-08-02T05:49:30.110Z,25.41
2023-08-02T05:50:35.268Z,25.51
2023-08-02T05:51:37.983Z,25.62
2023-08-02T05:52:41.893Z,25.65
2023-08-02T05:53:44.822Z,25.66
2023-08-02T05:54:48.645Z,25.75
2023-08-02T05:55:51.481Z,25.72
2023-08-02T05:56:53.795Z,25.73
2023-08-02T05:57:57.517Z,25.79
2023-08-02T05:59:00.010Z,25.79
2023-08-02T06:00:04.662Z,25.80
2023-08-02T06:01:08.224Z,25.76
2023-08-02T06:02:11.884Z,25.84
2023-08-02T06:03:14.526Z,25.89
2023-08-02T06:04:22.070Z,25.96
2023-08-02T06:05:24.573Z,25.97
2023-08-02T06:06:29.745Z,25.91
2023-08-02T06:07:32.417Z,25.83
2023-08-02T06:08:36.170Z,25.72
2023-08-02T06:09:39.011Z,25.77
2023-08-02T06:10:43.120Z,25.87
2023-08-02T06:11:45.710Z,25.95
2023-08-02T06:12:50.029Z,25.97
2023-08-02T06:13:52.772Z,25.98
2023-08-02T06:14:58.738Z,25.95
2023-08-02T06:16:01.867Z,26.01
2023-08-02T06:17:06.058Z,26.03
2023-08-02T06:18:08.613Z,26.01
2023-08-02T06:19:12.728Z,26.04
2023-08-02T06:20:15.724Z,26.06
2023-08-02T06:21:19.960Z,26.07
2023-08-02T06:22:23.842Z,26.02
2023-08-02T06:23:27.460Z,26.01
2023-08-02T06:24:29.988Z,26.01
2023-08-02T06:25:34.060Z,26.05
2023-08-02T06:26:37.241Z,26.13
2023-08-02T06:27:41.149Z,26.21
2023-08-02T06:28:43.552Z,26.28
2023-08-02T06:29:47.340Z,26.29
2023-08-02T06:30:50.186Z,26.29
2023-08-02T06:31:53.822Z,26.26
2023-08-02T06:32:56.294Z,26.24
2023-08-02T06:33:59.976Z,26.28
2023-08-02T06:35:02.865Z,26.40
2023-08-02T06:36:06.670Z,26.48
2023-08-02T06:37:09.203Z,26.61
2023-08-02T06:38:14.245Z,26.68
2023-08-02T06:39:16.766Z,26.77
2023-08-02T06:40:21.110Z,26.79
2023-08-02T06:41:23.674Z,26.77
2023-08-02T06:42:27.708Z,26.75
2023-08-02T06:43:30.459Z,26.75
2023-08-02T06:44:34.345Z,26.81
2023-08-02T06:45:36.940Z,26.77
2023-08-02T06:46:40.647Z,26.76
2023-08-02T06:47:43.267Z,26.80
2023-08-02T06:48:47.055Z,26.87
2023-08-02T06:49:49.606Z,26.95
2023-08-02T06:50:53.964Z,26.99
2023-08-02T06:51:56.544Z,27.00
2023-08-02T06:53:00.183Z,26.98
2023-08-02T06:54:04.181Z,27.02
2023-08-02T06:55:08.390Z,27.01
2023-08-02T06:56:12.728Z,27.03
2023-08-02T06:57:16.195Z,27.04
2023-08-02T06:58:18.905Z,27.09
2023-08-02T06:59:25.165Z,27.10
2023-08-02T07:00:30.899Z,27.15
2023-08-02T07:01:34.761Z,27.23
2023-08-02T07:02:37.550Z,27.25
2023-08-02T07:03:40.971Z,27.33
2023-08-02T07:04:43.510Z,27.38
2023-08-02T07:05:47.809Z,27.46
2023-08-02T07:06:50.299Z,27.48
2023-08-02T07:07:54.007Z,27.52
2023-08-02T07:08:56.983Z,27.55
2023-08-02T07:10:02.271Z,27.55
2023-08-02T07:11:05.642Z,27.54
2023-08-02T07:12:10.204Z,27.63
2023-08-02T07:13:13.020Z,27.64
2023-08-02T07:14:17.179Z,27.66
2023-08-02T07:15:20.239Z,27.67
2023-08-02T07:16:24.394Z,27.66
2023-08-02T07:17:27.183Z,27.62
2023-08-02T07:18:30.793Z,27.70
2023-08-02T07:19:34.177Z,27.81
2023-08-02T07:20:37.867Z,27.92
2023-08-02T07:21:41.010Z,28.00
2023-08-02T07:22:46.499Z,28.19
2023-08-02T07:23:49.141Z,28.22
2023-08-02T07:24:52.922Z,28.32
2023-08-02T07:25:58.299Z,28.42
2023-08-02T07:27:02.365Z,28.56
2023-08-02T07:28:05.167Z,28.73
2023-08-02T07:29:07.808Z,28.82
2023-08-02T07:30:12.532Z,28.91
2023-08-02T07:31:15.458Z,29.05
2023-08-02T07:32:19.002Z,29.13
2023-08-02T07:33:21.980Z,29.18
2023-08-02T07:34:25.819Z,29.16
2023-08-02T07:35:28.454Z,29.20
2023-08-02T07:36:32.270Z,29.11
2023-08-02T07:37:35.097Z,29.18
2023-08-02T07:38:38.909Z,29.06
2023-08-02T07:39:41.875Z,29.16
2023-08-02T07:40:46.332Z,29.26
2023-08-02T07:41:50.290Z,29.26
2023-08-02T07:42:54.067Z,29.32
2023-08-02T07:43:56.578Z,29.44
2023-08-02T07:45:04.519Z,29.41
2023-08-02T07:46:15.969Z,29.47
2023-08-02T07:47:19.426Z,29.43
2023-08-02T07:48:21.876Z,29.41
2023-08-02T07:49:25.409Z,29.30
2023-08-02T07:50:27.751Z,29.34
2023-08-02T07:51:32.141Z,29.32
2023-08-02T07:52:36.354Z,29.25
2023-08-02T07:53:39.875Z,29.28
2023-08-02T07:54:55.396Z,29.33
2023-08-02T07:56:03.625Z,29.42
2023-08-02T07:57:08.536Z,29.47
2023-08-02T07:58:12.639Z,29.42
2023-08-02T07:59:15.426Z,29.42
2023-08-02T08:00:19.611Z,29.48
2023-08-02T08:01:22.629Z,29.43
2023-08-02T08:02:27.341Z,29.49
2023-08-02T08:03:30.773Z,29.53
2023-08-02T08:04:34.435Z,29.59
2023-08-02T08:05:37.241Z,29.61
2023-08-02T08:06:41.549Z,29.77
2023-08-02T08:07:44.297Z,29.73
2023-08-02T08:08:48.165Z,29.79
2023-08-02T08:09:52.122Z,29.87
2023-08-02T08:10:56.422Z,29.92
2023-08-02T08:12:03.048Z,29.90
2023-08-02T08:13:08.252Z,29.80
2023-08-02T08:14:12.634Z,29.87
2023-08-02T08:15:16.582Z,29.83
2023-08-02T08:16:19.324Z,29.80
2023-08-02T08:17:23.306Z,29.72
2023-08-02T08:18:26.094Z,29.55
2023-08-02T08:19:29.654Z,29.51
2023-08-02T08:20:33.397Z,29.35
2023-08-02T08:21:35.983Z,29.33
2023-08-02T08:22:39.595Z,29.40
2023-08-02T08:23:42.056Z,29.40
2023-08-02T08:24:44.733Z,29.51
2023-08-02T08:25:48.668Z,29.66
2023-08-02T08:26:51.770Z,29.64
2023-08-02T08:27:55.440Z,29.65
2023-08-02T08:28:59.373Z,29.56
2023-08-02T08:30:02.885Z,29.62
2023-08-02T08:31:06.022Z,29.59
2023-08-02T08:32:10.785Z,29.69
2023-08-02T08:33:13.737Z,29.67
2023-08-02T08:34:17.785Z,29.75
2023-08-02T08:35:20.442Z,29.65
2023-08-02T08:36:24.222Z,29.50
2023-08-02T08:37:26.835Z,29.44
2023-08-02T08:38:31.837Z,29.55
2023-08-02T08:39:36.162Z,29.62
2023-08-02T08:40:40.785Z,29.44
2023-08-02T08:41:43.656Z,29.34
2023-08-02T08:42:51.533Z,29.15
2023-08-02T08:43:54.429Z,29.38
2023-08-02T08:45:01.809Z,29.50
2023-08-02T08:46:04.796Z,29.46
2023-08-02T08:47:07.797Z,29.31
2023-08-02T08:48:11.961Z,29.27
2023-08-02T08:49:14.918Z,29.25
2023-08-02T08:50:19.878Z,29.18
2023-08-02T08:51:24.060Z,29.26
2023-08-02T08:52:33.090Z,29.50
2023-08-02T08:53:37.270Z,29.34
2023-08-02T08:54:42.641Z,29.36
2023-08-02T08:55:50.160Z,29.44
2023-08-02T08:56:54.898Z,29.54
2023-08-02T08:58:00.815Z,29.50
2023-08-02T08:59:10.854Z,29.53
2023-08-02T09:00:15.824Z,29.44
2023-08-02T09:01:19.629Z,29.38
2023-08-02T09:02:22.568Z,29.42
2023-08-02T09:03:28.206Z,29.30
2023-08-02T09:04:31.656Z,29.22
2023-08-02T09:05:35.909Z,29.37
2023-08-02T09:06:38.490Z,29.36
2023-08-02T09:07:42.461Z,29.33
2023-08-02T09:08:46.528Z,29.42
2023-08-02T09:09:50.456Z,29.50
2023-08-02T09:10:53.666Z,29.43
2023-08-02T09:11:58.593Z,29.33
2023-08-02T09:13:01.546Z,29.14
2023-08-02T09:14:12.537Z,29.11
2023-08-02T09:15:16.937Z,29.20
2023-08-02T09:16:21.661Z,29.38
2023-08-02T09:17:25.114Z,29.24
2023-08-02T09:18:36.643Z,29.26
2023-08-02T09:19:39.300Z,29.27
2023-08-02T09:20:56.048Z,29.25
2023-08-02T09:22:12.760Z,29.15
2023-08-02T09:23:17.241Z,29.15
2023-08-02T09:24:34.515Z,29.08
2023-08-02T09:25:38.700Z,28.94
2023-08-02T09:26:41.447Z,28.96
2023-08-02T09:27:44.909Z,28.96
2023-08-02T09:29:01.216Z,28.82
2023-08-02T09:30:05.528Z,28.86
2023-08-02T09:31:19.402Z,28.91
2023-08-02T09:32:24.129Z,29.01
2023-08-02T09:33:26.912Z,29.00
2023-08-02T09:34:43.376Z,29.17
2023-08-02T09:35:53.275Z,29.11
2023-08-02T09:36:55.905Z,29.14
2023-08-02T09:38:00.542Z,29.09
2023-08-02T09:39:11.116Z,29.05
2023-08-02T09:40:14.930Z,29.01
2023-08-02T09:41:47.916Z,29.07
2023-08-02T09:42:48.859Z,29.02
2023-08-02T09:43:52.426Z,29.14
2023-08-02T09:44:57.771Z,29.22
2023-08-02T09:46:00.349Z,29.38
2023-08-02T09:47:11.549Z,29.51
2023-08-02T09:48:15.199Z,29.53
2023-08-02T09:49:19.310Z,29.61
2023-08-02T09:50:22.485Z,29.50
2023-08-02T09:51:41.694Z,29.57
2023-08-02T09:52:44.565Z,29.58
2023-08-02T09:54:05.470Z,29.55
2023-08-02T09:55:09.297Z,29.64
2023-08-02T09:56:13.006Z,29.67
2023-08-02T09:57:15.636Z,29.58
2023-08-02T09:58:22.560Z,29.54
2023-08-02T09:59:30.157Z,29.61
2023-08-02T10:00:33.688Z,29.67
2023-08-02T10:01:38.158Z,29.75
2023-08-02T10:02:44.044Z,29.73
2023-08-02T10:03:52.768Z,29.88
2023-08-02T10:04:58.253Z,29.79
2023-08-02T10:06:04.905Z,29.71
2023-08-02T10:07:14.609Z,29.69
2023-08-02T10:08:18.422Z,29.79
2023-08-02T10:09:23.019Z,29.82
2023-08-02T10:10:30.744Z,29.69
2023-08-02T10:11:36.739Z,29.65
2023-08-02T10:12:40.978Z,29.70
2023-08-02T10:13:49.144Z,29.65
2023-08-02T10:14:52.708Z,29.65
2023-08-02T10:15:58.245Z,29.65
2023-08-02T10:17:03.525Z,29.69
2023-08-02T10:18:10.446Z,29.69
2023-08-02T10:19:14.287Z,29.67
2023-08-02T10:20:18.266Z,29.85
2023-08-02T10:21:23.101Z,29.87
2023-08-02T10:22:27.849Z,29.97
2023-08-02T10:23:31.774Z,29.85
2023-08-02T10:24:36.206Z,29.76
2023-08-02T10:25:39.790Z,29.59
2023-08-02T10:26:45.339Z,29.53
2023-08-02T10:27:49.254Z,29.38
2023-08-02T10:28:54.865Z,29.43
2023-08-02T10:29:58.342Z,29.55
2023-08-02T10:31:07.420Z,29.52
2023-08-02T10:32:14.321Z,29.36
2023-08-02T10:33:23.423Z,29.49
2023-08-02T10:34:50.459Z,29.61
2023-08-02T10:35:58.629Z,29.69
2023-08-02T10:37:01.219Z,29.89
2023-08-02T10:38:04.823Z,29.93
2023-08-02T10:39:08.819Z,29.87
2023-08-02T10:40:12.386Z,29.67
2023-08-02T10:41:16.266Z,29.56
2023-08-02T10:42:22.051Z,29.59
2023-08-02T10:43:25.021Z,29.63
2023-08-02T10:44:30.613Z,29.65
2023-08-02T10:45:33.314Z,29.73
2023-08-02T10:46:37.032Z,29.73
2023-08-02T10:47:40.237Z,29.69
2023-08-02T10:48:45.704Z,29.55
2023-08-02T10:49:48.323Z,29.47
2023-08-02T10:50:51.968Z,29.50
2023-08-02T10:51:57.860Z,29.43
2023-08-02T10:53:10.758Z,29.43
2023-08-02T10:54:17.972Z,29.47
2023-08-02T10:55:21.858Z,29.44
2023-08-02T10:56:25.011Z,29.31
2023-08-02T10:57:27.555Z,29.18
2023-08-02T10:58:47.423Z,29.26
2023-08-02T10:59:50.696Z,29.30
2023-08-02T11:01:11.790Z,29.17
2023-08-02T11:02:15.089Z,29.30
2023-08-02T11:03:30.855Z,29.25
2023-08-02T11:04:38.767Z,29.24
2023-08-02T11:05:44.444Z,29.03
2023-08-02T11:06:47.150Z,29.12
2023-08-02T11:08:01.815Z,29.33
2023-08-02T11:09:04.755Z,29.38
2023-08-02T11:10:09.333Z,29.40
2023-08-02T11:11:12.106Z,29.10
2023-08-02T11:12:17.485Z,29.19
2023-08-02T11:13:21.125Z,29.31
2023-08-02T11:14:28.797Z,29.34
2023-08-02T11:15:31.479Z,29.29
2023-08-02T11:16:43.047Z,29.21
2023-08-02T11:17:58.055Z,29.33
2023-08-02T11:19:03.095Z,29.20
2023-08-02T11:20:09.972Z,29.00
2023-08-02T11:21:15.523Z,28.96
2023-08-02T11:22:19.211Z,28.93
2023-08-02T11:23:23.754Z,28.99
2023-08-02T11:24:30.408Z,28.91
2023-08-02T11:28:54.043Z,29.14
2023-08-02T11:30:01.341Z,29.34
2023-08-02T11:31:04.001Z,29.29
2023-08-02T11:32:08.401Z,29.24
2023-08-02T11:33:11.084Z,29.29
2023-08-02T11:34:20.934Z,29.23
2023-08-02T11:35:26.065Z,29.35
2023-08-02T11:36:35.081Z,29.31
2023-08-02T11:37:38.434Z,29.21
2023-08-02T11:38:42.478Z,29.17
2023-08-02T11:40:13.112Z,29.08
2023-08-02T11:41:20.016Z,29.14
2023-08-02T11:42:23.020Z,29.18
2023-08-02T11:43:36.648Z,29.22
2023-08-02T11:44:49.651Z,29.11
2023-08-02T11:46:02.334Z,29.07
2023-08-02T11:47:05.096Z,29.21
2023-08-02T11:48:11.335Z,29.28
2023-08-02T11:49:14.171Z,29.17
2023-08-02T11:50:27.192Z,29.26
2023-08-02T11:51:29.668Z,29.04
2023-08-02T11:52:35.068Z,29.08
2023-08-02T11:53:56.890Z,29.12
2023-08-02T11:55:01.192Z,28.97
2023-08-02T11:56:05.139Z,28.94
2023-08-02T11:57:09.251Z,28.96
2023-08-02T11:58:12.336Z,28.85
2023-08-02T11:59:16.346Z,28.85
2023-08-02T12:00:19.138Z,28.88
2023-08-02T12:01:22.215Z,28.88
2023-08-02T12:02:30.385Z,29.02
2023-08-02T12:03:33.429Z,29.18
2023-08-02T12:04:41.361Z,29.36
2023-08-02T12:05:46.349Z,29.23
2023-08-02T12:06:52.074Z,29.14
2023-08-02T12:08:07.944Z,29.18
2023-08-02T12:09:11.610Z,29.30
2023-08-02T12:10:29.227Z,29.12
2023-08-02T12:11:33.155Z,29.07
2023-08-02T12:12:36.472Z,29.06
2023-08-02T12:13:45.562Z,29.28
2023-08-02T12:14:48.332Z,29.34
2023-08-02T12:16:02.610Z,29.34
2023-08-02T12:17:05.299Z,29.30
2023-08-02T12:18:09.370Z,29.28
2023-08-02T12:19:12.530Z,29.34
2023-08-02T12:20:31.206Z,29.33
2023-08-02T12:21:35.371Z,29.27
2023-08-02T12:22:51.534Z,29.16
2023-08-02T12:23:55.049Z,29.25
2023-08-02T12:25:09.355Z,29.19
2023-08-02T12:26:13.294Z,29.20
2023-08-02T12:27:18.078Z,29.27
2023-08-02T12:28:20.489Z,29.31
2023-08-02T12:29:25.981Z,29.50
2023-08-02T12:30:28.440Z,29.39
2023-08-02T12:31:43.505Z,29.36
2023-08-02T12:32:46.679Z,29.62
2023-08-02T12:33:49.866Z,29.60
2023-08-02T12:35:01.843Z,29.52
2023-08-02T12:36:09.566Z,29.43
2023-08-02T12:37:15.284Z,29.51
2023-08-02T12:38:17.738Z,29.64
2023-08-02T12:39:21.323Z,29.54
2023-08-02T12:40:23.933Z,29.49
2023-08-02T12:41:29.367Z,29.42
2023-08-02T12:42:31.869Z,29.40
2023-08-02T12:43:35.976Z,29.31
2023-08-02T12:44:38.549Z,29.47
2023-08-02T12:45:42.084Z,29.67
2023-08-02T12:46:45.146Z,29.82
2023-08-02T12:47:49.318Z,29.80
2023-08-02T12:48:52.349Z,29.83
2023-08-02T12:49:58.206Z,29.91
2023-08-02T12:51:01.073Z,29.82
2023-08-02T12:52:07.197Z,29.64
2023-08-02T12:53:11.509Z,29.76
2023-08-02T12:54:15.229Z,29.70
2023-08-02T12:55:17.604Z,29.66
2023-08-02T12:56:20.231Z,29.59
2023-08-02T12:57:24.013Z,29.52
2023-08-02T12:58:26.484Z,29.40
2023-08-02T12:59:31.847Z,29.56
2023-08-02T13:00:34.681Z,29.55
2023-08-02T13:01:38.685Z,29.48
2023-08-02T13:02:41.805Z,29.37
2023-08-02T13:03:45.901Z,29.43
2023-08-02T13:04:48.473Z,29.48
2023-08-02T13:05:53.374Z,29.57
2023-08-02T13:06:56.508Z,29.53
2023-08-02T13:08:00.513Z,29.41
2023-08-02T13:09:06.571Z,29.46
2023-08-02T13:10:10.804Z,29.48
2023-08-02T13:11:14.888Z,29.40
2023-08-02T13:12:24.153Z,29.25
2023-08-02T13:13:31.528Z,29.39
2023-08-02T13:14:34.321Z,29.32
2023-08-02T13:15:38.054Z,29.34
2023-08-02T13:16:41.298Z,29.27
2023-08-02T13:17:48.494Z,29.33
2023-08-02T13:18:51.354Z,29.30
2023-08-02T13:19:54.837Z,29.13
2023-08-02T13:20:57.552Z,29.36
2023-08-02T13:22:01.195Z,29.46
2023-08-02T13:23:03.792Z,29.51
2023-08-02T13:24:09.701Z,29.44
2023-08-02T13:25:12.268Z,29.63
2023-08-02T13:26:15.928Z,29.63
2023-08-02T13:27:18.824Z,29.53
2023-08-02T13:28:22.325Z,29.56
2023-08-02T13:29:25.272Z,29.60
2023-08-02T13:30:27.721Z,29.50
2023-08-02T13:31:32.548Z,29.45
2023-08-02T13:32:35.896Z,29.44
2023-08-02T13:33:42.998Z,29.52
2023-08-02T13:34:45.717Z,29.51
2023-08-02T13:35:49.496Z,29.52
2023-08-02T13:36:52.435Z,29.41
2023-08-02T13:37:56.648Z,29.39
2023-08-02T13:38:59.073Z,29.26
2023-08-02T13:40:04.798Z,29.32
2023-08-02T13:41:08.119Z,29.36
2023-08-02T13:42:12.201Z,29.33
2023-08-02T13:43:14.999Z,29.27
2023-08-02T13:44:19.130Z,29.23
2023-08-02T13:45:21.873Z,29.18
2023-08-02T13:46:25.956Z,29.02
2023-08-02T13:47:29.769Z,29.01
2023-08-02T13:48:33.507Z,28.89
2023-08-02T13:49:36.408Z,28.99
2023-08-02T13:50:40.286Z,29.09
2023-08-02T13:51:42.944Z,29.16
2023-08-02T13:52:46.764Z,29.04
2023-08-02T13:53:49.596Z,29.17
2023-08-02T13:54:53.646Z,29.16
2023-08-02T13:55:58.596Z,29.10